SBSV/SSA METAR and TAF weather

Enter ICAO airport designator
Station Type Date Time Source
SBSV METAR 2022/11/30 11:00 UTC NOAA

SBSV 301100Z 33006KT 9999 FEW020 BKN100 26/23 Q1007


Station Type Date Time Source
SBSV Decoded METAR 2022/11/30 11:00 UTC NOAA

Salvador Aeroporto , Brazil (SBSV) 12-54S 038-20W 13M
Nov 30, 2022 - 06:00 AM EST / 2022.11.30 1100 UTC
Wind: from the NNW (330 degrees) at 7 MPH (6 KT):0
Visibility: greater than 7 mile(s):0
Sky conditions: mostly cloudy
Temperature: 78 F (26 C)
Dew Point: 73 F (23 C)
Relative Humidity: 83%
Pressure (altimeter): 29.74 in. Hg (1007 hPa)
ob: SBSV 301100Z 33006KT 9999 FEW020 BKN100 26/23 Q1007
cycle: 11

Station Type Date Time Source
SBSV TAF 2022/11/30 12:15 UTC NOAA

TAF SBSV 300815Z 3012/0112 36007KT 9999 SCT020 FEW023TCU TX29/3016Z TN24/0108Z
BECMG 3013/3015 05010KT
TEMPO 3016/3024 5000 TSRA BR BKN020 FEW025CB
TEMPO 0100/0106 01010KT 6000 SHRA BKN017 FEW025TCU
RMK PGN

Example: see airport list